Portada
METAR-TAF:

METAR-TAF

Aeroports :

Bamako, Mali

latitud: 12-32N, longitud: 007-57W, altitud: 380 m

Observació

L'informe es va fer fa 30 minuts, a les 23:00 UTC
Vent 7 kt del Est/Nord-Est
Temperatura 23°C
Humitat 23%
Pressió 1017 hPa
Visibilitat: 8000 m

METAR: GABS 182300Z 06007KT 8000 NSC 23/01 Q1017 NOSIG

Hora: 23:30 (23:30 UTC)

Pronòstic

L'informe es va fer fa 6 hores i 30 minuts, a les 17:00 UTC
Pronòstic vàlid del 18 a les 18 UTC al 19 a les 24 UTC
Vent 10 kt del Nord-Est
Visibilitat: 8000 m

TAF: GABS 181700Z 1818/1924 04010KT 8000 NSC

Observacions i pronòstics meteorològics de més de 4000 aeroports (METAR i TAF).

Les estacions disponibles són els punts grocs i vermells al mapa.

Posi el ratolí al punt desitjat per veure el nom de l'estació.

Feu clic per veure les observacions i els pronòstics meteorològics.

Per canviar el mapa: feu clic els botons verds amb una creu de color negre per apropar; al botó verd amb un guió per allunyar la imatge; o en les fletxes verdes per a mapes adjacents.


METAR-TAF: